sensor_id;sensor_type;location;lat;lon;timestamp;temperature;humidity
34095;DHT22;20372;47.080;15.410;2022-12-18T00:00:42;-3.00;99.90
34095;DHT22;20372;47.080;15.410;2022-12-18T00:03:08;-2.90;99.90
34095;DHT22;20372;47.080;15.410;2022-12-18T00:05:34;-2.90;99.90
34095;DHT22;20372;47.080;15.410;2022-12-18T00:08:00;-2.90;99.90
34095;DHT22;20372;47.080;15.410;2022-12-18T00:10:26;-2.80;99.90
34095;DHT22;20372;47.080;15.410;2022-12-18T00:12:52;-2.80;99.90
34095;DHT22;20372;47.080;15.410;2022-12-18T00:15:17;-2.80;99.90
34095;DHT22;20372;47.080;15.410;2022-12-18T00:17:43;-2.80;99.90
34095;DHT22;20372;47.080;15.410;2022-12-18T00:20:09;-2.80;99.90
34095;DHT22;20372;47.080;15.410;2022-12-18T00:22:34;-2.80;99.90
34095;DHT22;20372;47.080;15.410;2022-12-18T00:25:00;-2.80;99.90
34095;DHT22;20372;47.080;15.410;2022-12-18T00:27:25;-2.80;99.90
34095;DHT22;20372;47.080;15.410;2022-12-18T00:29:51;-2.90;99.90
34095;DHT22;20372;47.080;15.410;2022-12-18T00:32:17;-2.80;99.90
34095;DHT22;20372;47.080;15.410;2022-12-18T00:34:42;-2.90;99.90
34095;DHT22;20372;47.080;15.410;2022-12-18T00:37:08;-3.00;99.90
34095;DHT22;20372;47.080;15.410;2022-12-18T00:39:33;-3.00;99.90
34095;DHT22;20372;47.080;15.410;2022-12-18T00:41:59;-3.00;99.90
34095;DHT22;20372;47.080;15.410;2022-12-18T00:44:43;-3.00;99.90
34095;DHT22;20372;47.080;15.410;2022-12-18T00:47:09;-3.00;99.90
34095;DHT22;20372;47.080;15.410;2022-12-18T00:49:34;-3.00;99.90
34095;DHT22;20372;47.080;15.410;2022-12-18T00:52:00;-3.10;99.90
34095;DHT22;20372;47.080;15.410;2022-12-18T00:54:26;-3.20;99.90
34095;DHT22;20372;47.080;15.410;2022-12-18T00:56:51;-3.10;99.90
34095;DHT22;20372;47.080;15.410;2022-12-18T00:59:17;-3.30;99.90
34095;DHT22;20372;47.080;15.410;2022-12-18T01:01:43;-3.30;99.90
34095;DHT22;20372;47.080;15.410;2022-12-18T01:04:08;-3.30;99.90
34095;DHT22;20372;47.080;15.410;2022-12-18T01:06:34;-3.40;99.90
34095;DHT22;20372;47.080;15.410;2022-12-18T01:09:00;-3.40;99.90
34095;DHT22;20372;47.080;15.410;2022-12-18T01:11:25;-3.50;99.90
34095;DHT22;20372;47.080;15.410;2022-12-18T01:13:52;-3.60;99.90
34095;DHT22;20372;47.080;15.410;2022-12-18T01:16:18;-3.80;99.90
34095;DHT22;20372;47.080;15.410;2022-12-18T01:18:44;-3.90;99.90
34095;DHT22;20372;47.080;15.410;2022-12-18T01:21:11;-3.90;99.90
34095;DHT22;20372;47.080;15.410;2022-12-18T01:23:37;-3.90;99.90
34095;DHT22;20372;47.080;15.410;2022-12-18T01:26:10;-3.90;99.90
34095;DHT22;20372;47.080;15.410;2022-12-18T01:28:36;-3.90;99.90
34095;DHT22;20372;47.080;15.410;2022-12-18T01:31:23;-3.80;99.90
34095;DHT22;20372;47.080;15.410;2022-12-18T01:33:47;-3.80;99.90
34095;DHT22;20372;47.080;15.410;2022-12-18T01:36:16;-3.90;99.90
34095;DHT22;20372;47.080;15.410;2022-12-18T01:38:41;-4.00;99.90
34095;DHT22;20372;47.080;15.410;2022-12-18T01:41:08;-4.00;99.90
34095;DHT22;20372;47.080;15.410;2022-12-18T01:46:11;-3.90;99.90
34095;DHT22;20372;47.080;15.410;2022-12-18T01:48:37;-3.90;99.90
34095;DHT22;20372;47.080;15.410;2022-12-18T01:51:04;-3.90;99.90
34095;DHT22;20372;47.080;15.410;2022-12-18T01:53:31;-3.80;99.90
34095;DHT22;20372;47.080;15.410;2022-12-18T01:55:57;-3.90;99.90
34095;DHT22;20372;47.080;15.410;2022-12-18T02:00:55;-3.90;99.90
34095;DHT22;20372;47.080;15.410;2022-12-18T02:03:21;-3.80;99.90
34095;DHT22;20372;47.080;15.410;2022-12-18T02:05:47;-3.90;99.90
34095;DHT22;20372;47.080;15.410;2022-12-18T02:08:33;-3.90;99.90
34095;DHT22;20372;47.080;15.410;2022-12-18T02:18:38;-3.80;99.90
34095;DHT22;20372;47.080;15.410;2022-12-18T02:26:18;-3.70;99.90
34095;DHT22;20372;47.080;15.410;2022-12-18T02:28:49;-3.80;99.90
34095;DHT22;20372;47.080;15.410;2022-12-18T02:31:18;-3.70;99.90
34095;DHT22;20372;47.080;15.410;2022-12-18T02:33:46;-3.70;99.90
34095;DHT22;20372;47.080;15.410;2022-12-18T02:36:13;-3.60;99.90
34095;DHT22;20372;47.080;15.410;2022-12-18T02:38:41;-3.70;99.90
34095;DHT22;20372;47.080;15.410;2022-12-18T02:41:07;-3.80;99.90
34095;DHT22;20372;47.080;15.410;2022-12-18T02:43:33;-3.80;99.90
34095;DHT22;20372;47.080;15.410;2022-12-18T02:45:59;-3.80;99.90
34095;DHT22;20372;47.080;15.410;2022-12-18T02:48:27;-3.80;99.90
34095;DHT22;20372;47.080;15.410;2022-12-18T02:51:03;-3.70;99.90
34095;DHT22;20372;47.080;15.410;2022-12-18T02:53:35;-3.50;99.90
34095;DHT22;20372;47.080;15.410;2022-12-18T02:56:13;-3.70;99.90
34095;DHT22;20372;47.080;15.410;2022-12-18T03:03:56;-3.70;99.90
34095;DHT22;20372;47.080;15.410;2022-12-18T03:06:24;-3.70;99.90
34095;DHT22;20372;47.080;15.410;2022-12-18T03:08:51;-3.80;99.90
34095;DHT22;20372;47.080;15.410;2022-12-18T03:11:19;-3.80;99.90
34095;DHT22;20372;47.080;15.410;2022-12-18T03:14:05;-3.90;99.90
34095;DHT22;20372;47.080;15.410;2022-12-18T03:16:32;-3.90;99.90
34095;DHT22;20372;47.080;15.410;2022-12-18T03:19:03;-4.00;99.90
34095;DHT22;20372;47.080;15.410;2022-12-18T03:21:32;-4.00;99.90
34095;DHT22;20372;47.080;15.410;2022-12-18T03:23:59;-4.00;99.90
34095;DHT22;20372;47.080;15.410;2022-12-18T03:26:25;-4.00;99.90
34095;DHT22;20372;47.080;15.410;2022-12-18T03:29:00;-4.00;99.90
34095;DHT22;20372;47.080;15.410;2022-12-18T03:31:27;-4.00;99.90
34095;DHT22;20372;47.080;15.410;2022-12-18T03:33:54;-4.00;99.90
34095;DHT22;20372;47.080;15.410;2022-12-18T03:36:20;-3.90;99.90
34095;DHT22;20372;47.080;15.410;2022-12-18T03:38:46;-3.90;99.90
34095;DHT22;20372;47.080;15.410;2022-12-18T03:41:28;-3.90;99.90
34095;DHT22;20372;47.080;15.410;2022-12-18T03:43:57;-4.00;99.90
34095;DHT22;20372;47.080;15.410;2022-12-18T03:46:33;-4.00;99.90
34095;DHT22;20372;47.080;15.410;2022-12-18T03:49:00;-4.00;99.90
34095;DHT22;20372;47.080;15.410;2022-12-18T03:51:28;-4.00;99.90
34095;DHT22;20372;47.080;15.410;2022-12-18T03:53:58;-4.10;99.90
34095;DHT22;20372;47.080;15.410;2022-12-18T03:56:26;-4.10;99.90
34095;DHT22;20372;47.080;15.410;2022-12-18T03:58:53;-4.10;99.90
34095;DHT22;20372;47.080;15.410;2022-12-18T04:01:20;-4.10;99.90
34095;DHT22;20372;47.080;15.410;2022-12-18T04:03:47;-4.20;99.90
34095;DHT22;20372;47.080;15.410;2022-12-18T04:06:14;-4.20;99.90
34095;DHT22;20372;47.080;15.410;2022-12-18T04:08:41;-4.30;99.90
34095;DHT22;20372;47.080;15.410;2022-12-18T04:11:07;-4.40;99.90
34095;DHT22;20372;47.080;15.410;2022-12-18T04:13:36;-4.40;99.90
34095;DHT22;20372;47.080;15.410;2022-12-18T04:16:02;-4.50;99.90
34095;DHT22;20372;47.080;15.410;2022-12-18T04:18:28;-4.50;99.90
34095;DHT22;20372;47.080;15.410;2022-12-18T04:20:53;-4.40;99.90
34095;DHT22;20372;47.080;15.410;2022-12-18T04:23:19;-4.30;99.90
34095;DHT22;20372;47.080;15.410;2022-12-18T04:25:45;-4.30;99.90
34095;DHT22;20372;47.080;15.410;2022-12-18T04:28:11;-4.30;99.90
34095;DHT22;20372;47.080;15.410;2022-12-18T04:30:37;-4.30;99.90
34095;DHT22;20372;47.080;15.410;2022-12-18T04:33:03;-4.30;99.90
34095;DHT22;20372;47.080;15.410;2022-12-18T04:35:28;-4.30;99.90
34095;DHT22;20372;47.080;15.410;2022-12-18T04:37:54;-4.20;99.90
34095;DHT22;20372;47.080;15.410;2022-12-18T04:40:20;-4.20;99.90
34095;DHT22;20372;47.080;15.410;2022-12-18T04:42:45;-4.30;99.90
34095;DHT22;20372;47.080;15.410;2022-12-18T04:45:11;-4.20;99.90
34095;DHT22;20372;47.080;15.410;2022-12-18T04:47:36;-4.40;99.90
34095;DHT22;20372;47.080;15.410;2022-12-18T04:50:02;-4.40;99.90
34095;DHT22;20372;47.080;15.410;2022-12-18T04:52:27;-4.30;99.90
34095;DHT22;20372;47.080;15.410;2022-12-18T04:54:53;-4.20;99.90
34095;DHT22;20372;47.080;15.410;2022-12-18T04:57:19;-4.20;99.90
34095;DHT22;20372;47.080;15.410;2022-12-18T04:59:44;-4.30;99.90
34095;DHT22;20372;47.080;15.410;2022-12-18T05:02:10;-4.40;99.90
34095;DHT22;20372;47.080;15.410;2022-12-18T05:04:36;-4.40;99.90
34095;DHT22;20372;47.080;15.410;2022-12-18T05:07:01;-4.30;99.90
34095;DHT22;20372;47.080;15.410;2022-12-18T05:09:27;-4.20;99.90
34095;DHT22;20372;47.080;15.410;2022-12-18T05:11:52;-4.10;99.90
34095;DHT22;20372;47.080;15.410;2022-12-18T05:14:18;-4.00;99.90
34095;DHT22;20372;47.080;15.410;2022-12-18T05:16:44;-4.10;99.90
34095;DHT22;20372;47.080;15.410;2022-12-18T05:19:10;-4.10;99.90
34095;DHT22;20372;47.080;15.410;2022-12-18T05:21:35;-4.20;99.90
34095;DHT22;20372;47.080;15.410;2022-12-18T05:24:01;-4.20;99.90
34095;DHT22;20372;47.080;15.410;2022-12-18T05:26:26;-4.10;99.90
34095;DHT22;20372;47.080;15.410;2022-12-18T05:28:52;-4.20;99.90
34095;DHT22;20372;47.080;15.410;2022-12-18T05:31:17;-4.20;99.90
34095;DHT22;20372;47.080;15.410;2022-12-18T05:33:43;-4.10;99.90
34095;DHT22;20372;47.080;15.410;2022-12-18T05:36:09;-4.20;99.90
34095;DHT22;20372;47.080;15.410;2022-12-18T05:38:35;-4.40;99.90
34095;DHT22;20372;47.080;15.410;2022-12-18T05:41:01;-4.10;99.90
34095;DHT22;20372;47.080;15.410;2022-12-18T05:43:27;-4.30;99.90
34095;DHT22;20372;47.080;15.410;2022-12-18T05:45:53;-4.40;99.90
34095;DHT22;20372;47.080;15.410;2022-12-18T05:48:19;-4.10;99.90
34095;DHT22;20372;47.080;15.410;2022-12-18T05:50:46;-4.00;99.90
34095;DHT22;20372;47.080;15.410;2022-12-18T05:53:12;-4.10;99.90
34095;DHT22;20372;47.080;15.410;2022-12-18T05:55:38;-4.00;99.90
34095;DHT22;20372;47.080;15.410;2022-12-18T05:58:05;-4.10;99.90
34095;DHT22;20372;47.080;15.410;2022-12-18T06:00:31;-4.20;99.90
34095;DHT22;20372;47.080;15.410;2022-12-18T06:02:57;-4.20;99.90
34095;DHT22;20372;47.080;15.410;2022-12-18T06:05:23;-4.20;99.90
34095;DHT22;20372;47.080;15.410;2022-12-18T06:07:48;-4.30;99.90
34095;DHT22;20372;47.080;15.410;2022-12-18T06:10:14;-4.10;99.90
34095;DHT22;20372;47.080;15.410;2022-12-18T06:12:40;-4.10;99.90
34095;DHT22;20372;47.080;15.410;2022-12-18T06:15:05;-4.10;99.90
34095;DHT22;20372;47.080;15.410;2022-12-18T06:17:31;-4.10;99.90
34095;DHT22;20372;47.080;15.410;2022-12-18T06:19:57;-4.00;99.90
34095;DHT22;20372;47.080;15.410;2022-12-18T06:22:22;-4.00;99.90
34095;DHT22;20372;47.080;15.410;2022-12-18T06:24:48;-4.00;99.90
34095;DHT22;20372;47.080;15.410;2022-12-18T06:27:13;-4.00;99.90
34095;DHT22;20372;47.080;15.410;2022-12-18T06:29:39;-3.90;99.90
34095;DHT22;20372;47.080;15.410;2022-12-18T06:32:05;-3.90;99.90
34095;DHT22;20372;47.080;15.410;2022-12-18T06:34:31;-3.80;99.90
34095;DHT22;20372;47.080;15.410;2022-12-18T06:36:57;-3.80;99.90
34095;DHT22;20372;47.080;15.410;2022-12-18T06:39:23;-3.70;99.90
34095;DHT22;20372;47.080;15.410;2022-12-18T06:41:49;-4.00;99.90
34095;DHT22;20372;47.080;15.410;2022-12-18T06:44:14;-3.80;99.90
34095;DHT22;20372;47.080;15.410;2022-12-18T06:46:40;-3.60;99.90
34095;DHT22;20372;47.080;15.410;2022-12-18T06:49:05;-3.60;99.90
34095;DHT22;20372;47.080;15.410;2022-12-18T06:51:31;-3.50;99.90
34095;DHT22;20372;47.080;15.410;2022-12-18T06:53:56;-3.40;99.90
34095;DHT22;20372;47.080;15.410;2022-12-18T06:56:22;-3.40;99.90
34095;DHT22;20372;47.080;15.410;2022-12-18T06:58:48;-3.30;99.90
34095;DHT22;20372;47.080;15.410;2022-12-18T07:01:13;-3.20;99.90
34095;DHT22;20372;47.080;15.410;2022-12-18T07:03:40;-3.20;99.90
34095;DHT22;20372;47.080;15.410;2022-12-18T07:06:06;-3.20;99.90
34095;DHT22;20372;47.080;15.410;2022-12-18T07:08:31;-3.20;99.90
34095;DHT22;20372;47.080;15.410;2022-12-18T07:10:57;-3.10;99.90
34095;DHT22;20372;47.080;15.410;2022-12-18T07:13:23;-3.10;99.90
34095;DHT22;20372;47.080;15.410;2022-12-18T07:15:49;-3.00;99.90
34095;DHT22;20372;47.080;15.410;2022-12-18T07:18:14;-2.90;99.90
34095;DHT22;20372;47.080;15.410;2022-12-18T07:20:40;-2.80;99.90
34095;DHT22;20372;47.080;15.410;2022-12-18T07:23:05;-2.90;99.90
34095;DHT22;20372;47.080;15.410;2022-12-18T07:25:34;-2.90;99.90
34095;DHT22;20372;47.080;15.410;2022-12-18T07:28:00;-2.90;99.90
34095;DHT22;20372;47.080;15.410;2022-12-18T07:30:26;-2.90;99.90
34095;DHT22;20372;47.080;15.410;2022-12-18T07:32:51;-2.70;99.90
34095;DHT22;20372;47.080;15.410;2022-12-18T07:35:17;-2.70;99.90
34095;DHT22;20372;47.080;15.410;2022-12-18T07:37:42;-2.70;99.90
34095;DHT22;20372;47.080;15.410;2022-12-18T07:40:08;-2.70;99.90
34095;DHT22;20372;47.080;15.410;2022-12-18T07:42:34;-2.70;99.90
34095;DHT22;20372;47.080;15.410;2022-12-18T07:45:00;-2.50;99.90
34095;DHT22;20372;47.080;15.410;2022-12-18T07:47:27;-2.50;99.90
34095;DHT22;20372;47.080;15.410;2022-12-18T07:49:52;-2.50;99.90
34095;DHT22;20372;47.080;15.410;2022-12-18T07:52:18;-2.40;99.90
34095;DHT22;20372;47.080;15.410;2022-12-18T07:54:43;-2.40;99.90
34095;DHT22;20372;47.080;15.410;2022-12-18T07:57:09;-2.40;99.90
34095;DHT22;20372;47.080;15.410;2022-12-18T07:59:35;-2.50;99.90
34095;DHT22;20372;47.080;15.410;2022-12-18T08:02:00;-2.30;99.90
34095;DHT22;20372;47.080;15.410;2022-12-18T08:04:26;-2.10;99.90
34095;DHT22;20372;47.080;15.410;2022-12-18T08:06:51;-1.90;99.90
34095;DHT22;20372;47.080;15.410;2022-12-18T08:09:17;-1.90;99.90
34095;DHT22;20372;47.080;15.410;2022-12-18T08:11:42;-1.90;99.90
34095;DHT22;20372;47.080;15.410;2022-12-18T08:14:08;-2.10;99.90
34095;DHT22;20372;47.080;15.410;2022-12-18T08:16:34;-1.90;99.90
34095;DHT22;20372;47.080;15.410;2022-12-18T08:18:59;-1.70;99.90
34095;DHT22;20372;47.080;15.410;2022-12-18T08:21:26;-1.30;99.90
34095;DHT22;20372;47.080;15.410;2022-12-18T08:23:52;-0.80;99.90
34095;DHT22;20372;47.080;15.410;2022-12-18T08:26:18;-0.30;99.90
34095;DHT22;20372;47.080;15.410;2022-12-18T08:28:44;0.10;99.90
34095;DHT22;20372;47.080;15.410;2022-12-18T08:31:10;0.80;99.90
34095;DHT22;20372;47.080;15.410;2022-12-18T08:33:36;1.40;99.90
34095;DHT22;20372;47.080;15.410;2022-12-18T08:36:03;1.60;99.90
34095;DHT22;20372;47.080;15.410;2022-12-18T08:38:29;0.90;99.90
34095;DHT22;20372;47.080;15.410;2022-12-18T08:40:58;0.40;99.90
34095;DHT22;20372;47.080;15.410;2022-12-18T08:43:24;0.20;99.90
34095;DHT22;20372;47.080;15.410;2022-12-18T08:46:08;0.10;99.90
34095;DHT22;20372;47.080;15.410;2022-12-18T08:48:33;0.00;99.90
34095;DHT22;20372;47.080;15.410;2022-12-18T08:50:59;0.10;99.90
34095;DHT22;20372;47.080;15.410;2022-12-18T08:53:25;0.10;99.90
34095;DHT22;20372;47.080;15.410;2022-12-18T08:55:51;0.20;99.90
34095;DHT22;20372;47.080;15.410;2022-12-18T08:58:17;0.60;99.90
34095;DHT22;20372;47.080;15.410;2022-12-18T09:00:43;0.30;99.90
34095;DHT22;20372;47.080;15.410;2022-12-18T09:03:15;0.00;99.90
34095;DHT22;20372;47.080;15.410;2022-12-18T09:05:41;0.00;99.90
34095;DHT22;20372;47.080;15.410;2022-12-18T09:08:07;-0.30;99.90
34095;DHT22;20372;47.080;15.410;2022-12-18T09:10:32;-0.40;99.90
34095;DHT22;20372;47.080;15.410;2022-12-18T09:12:58;-0.50;99.90
34095;DHT22;20372;47.080;15.410;2022-12-18T09:15:24;-1.10;99.90
34095;DHT22;20372;47.080;15.410;2022-12-18T09:17:49;-0.60;99.90
34095;DHT22;20372;47.080;15.410;2022-12-18T09:20:18;-0.30;99.90
34095;DHT22;20372;47.080;15.410;2022-12-18T09:22:44;-0.40;99.90
34095;DHT22;20372;47.080;15.410;2022-12-18T09:25:09;-0.50;99.90
34095;DHT22;20372;47.080;15.410;2022-12-18T09:27:35;-0.30;99.90
34095;DHT22;20372;47.080;15.410;2022-12-18T09:30:01;-0.30;99.90
34095;DHT22;20372;47.080;15.410;2022-12-18T09:32:26;-0.20;99.90
34095;DHT22;20372;47.080;15.410;2022-12-18T09:34:52;0.00;99.90
34095;DHT22;20372;47.080;15.410;2022-12-18T09:37:17;0.00;99.90
34095;DHT22;20372;47.080;15.410;2022-12-18T09:39:43;0.10;99.90
34095;DHT22;20372;47.080;15.410;2022-12-18T09:42:12;0.10;99.90
34095;DHT22;20372;47.080;15.410;2022-12-18T09:44:43;0.10;99.90
34095;DHT22;20372;47.080;15.410;2022-12-18T09:49:44;-0.60;99.90
34095;DHT22;20372;47.080;15.410;2022-12-18T09:54:36;-0.30;99.90
34095;DHT22;20372;47.080;15.410;2022-12-18T09:57:03;-0.30;99.90
34095;DHT22;20372;47.080;15.410;2022-12-18T09:59:30;-0.50;99.90
34095;DHT22;20372;47.080;15.410;2022-12-18T10:01:57;-0.50;99.90
34095;DHT22;20372;47.080;15.410;2022-12-18T10:04:23;-0.80;99.90
34095;DHT22;20372;47.080;15.410;2022-12-18T10:06:53;-0.70;99.90
34095;DHT22;20372;47.080;15.410;2022-12-18T10:12:03;0.00;99.90
34095;DHT22;20372;47.080;15.410;2022-12-18T10:14:34;-0.20;99.90
34095;DHT22;20372;47.080;15.410;2022-12-18T10:21:58;-0.10;99.90
34095;DHT22;20372;47.080;15.410;2022-12-18T10:24:32;-0.40;99.90
34095;DHT22;20372;47.080;15.410;2022-12-18T10:27:04;-0.30;99.90
34095;DHT22;20372;47.080;15.410;2022-12-18T10:29:34;-0.20;99.90
34095;DHT22;20372;47.080;15.410;2022-12-18T10:31:59;-0.10;99.90
34095;DHT22;20372;47.080;15.410;2022-12-18T10:34:25;-0.20;99.90
34095;DHT22;20372;47.080;15.410;2022-12-18T10:36:50;-0.20;99.90
34095;DHT22;20372;47.080;15.410;2022-12-18T10:39:18;-0.20;99.90
34095;DHT22;20372;47.080;15.410;2022-12-18T10:41:43;-0.40;99.90
34095;DHT22;20372;47.080;15.410;2022-12-18T10:44:11;-0.70;99.90
34095;DHT22;20372;47.080;15.410;2022-12-18T10:46:37;-0.70;99.90
34095;DHT22;20372;47.080;15.410;2022-12-18T10:49:03;-0.60;99.90
34095;DHT22;20372;47.080;15.410;2022-12-18T10:51:31;-0.70;99.90
34095;DHT22;20372;47.080;15.410;2022-12-18T10:56:30;0.00;99.90
34095;DHT22;20372;47.080;15.410;2022-12-18T10:59:00;-0.40;99.90
34095;DHT22;20372;47.080;15.410;2022-12-18T11:01:26;-0.60;99.90
34095;DHT22;20372;47.080;15.410;2022-12-18T11:06:19;-0.40;99.90
34095;DHT22;20372;47.080;15.410;2022-12-18T11:11:24;0.10;99.90
34095;DHT22;20372;47.080;15.410;2022-12-18T11:13:57;0.30;99.90
34095;DHT22;20372;47.080;15.410;2022-12-18T11:16:23;0.50;99.90
34095;DHT22;20372;47.080;15.410;2022-12-18T11:18:49;0.50;99.90
34095;DHT22;20372;47.080;15.410;2022-12-18T11:21:15;0.50;99.90
34095;DHT22;20372;47.080;15.410;2022-12-18T11:23:46;0.40;99.90
34095;DHT22;20372;47.080;15.410;2022-12-18T11:26:12;0.50;99.90
34095;DHT22;20372;47.080;15.410;2022-12-18T11:29:24;0.50;99.90
34095;DHT22;20372;47.080;15.410;2022-12-18T11:31:28;0.50;99.90
34095;DHT22;20372;47.080;15.410;2022-12-18T11:36:19;0.60;99.90
34095;DHT22;20372;47.080;15.410;2022-12-18T11:38:46;0.20;99.90
34095;DHT22;20372;47.080;15.410;2022-12-18T11:43:41;0.10;99.90
34095;DHT22;20372;47.080;15.410;2022-12-18T11:46:10;0.30;99.90
34095;DHT22;20372;47.080;15.410;2022-12-18T11:48:40;0.20;99.90
34095;DHT22;20372;47.080;15.410;2022-12-18T11:51:20;0.00;99.90
34095;DHT22;20372;47.080;15.410;2022-12-18T11:53:48;-0.10;99.90
34095;DHT22;20372;47.080;15.410;2022-12-18T11:58:46;-0.10;99.90
34095;DHT22;20372;47.080;15.410;2022-12-18T12:01:23;0.00;99.90
34095;DHT22;20372;47.080;15.410;2022-12-18T12:04:15;0.10;99.90
34095;DHT22;20372;47.080;15.410;2022-12-18T12:19:45;-0.90;99.90
34095;DHT22;20372;47.080;15.410;2022-12-18T12:24:49;-0.60;99.90
34095;DHT22;20372;47.080;15.410;2022-12-18T12:35:21;-0.90;99.90
34095;DHT22;20372;47.080;15.410;2022-12-18T12:40:27;-0.70;99.90
34095;DHT22;20372;47.080;15.410;2022-12-18T12:43:00;-0.50;99.90
34095;DHT22;20372;47.080;15.410;2022-12-18T12:45:40;-0.30;99.90
34095;DHT22;20372;47.080;15.410;2022-12-18T12:48:12;-0.20;99.90
34095;DHT22;20372;47.080;15.410;2022-12-18T12:50:40;-0.30;99.90
34095;DHT22;20372;47.080;15.410;2022-12-18T12:53:07;-0.40;99.90
34095;DHT22;20372;47.080;15.410;2022-12-18T12:55:34;-0.40;99.90
34095;DHT22;20372;47.080;15.410;2022-12-18T12:58:07;-0.30;99.90
34095;DHT22;20372;47.080;15.410;2022-12-18T13:00:46;-0.30;99.90
34095;DHT22;20372;47.080;15.410;2022-12-18T13:03:23;-0.50;99.90
34095;DHT22;20372;47.080;15.410;2022-12-18T13:08:28;-0.80;99.90
34095;DHT22;20372;47.080;15.410;2022-12-18T13:10:55;-0.90;99.90
34095;DHT22;20372;47.080;15.410;2022-12-18T13:16:14;-0.70;99.90
34095;DHT22;20372;47.080;15.410;2022-12-18T13:18:53;-0.80;99.90
34095;DHT22;20372;47.080;15.410;2022-12-18T13:21:27;-1.20;99.90
34095;DHT22;20372;47.080;15.410;2022-12-18T13:23:53;-1.30;99.90
34095;DHT22;20372;47.080;15.410;2022-12-18T13:28:50;-1.50;99.90
34095;DHT22;20372;47.080;15.410;2022-12-18T13:34:14;-1.50;99.90
34095;DHT22;20372;47.080;15.410;2022-12-18T13:36:41;-1.40;99.90
34095;DHT22;20372;47.080;15.410;2022-12-18T13:39:52;-1.30;99.90
34095;DHT22;20372;47.080;15.410;2022-12-18T13:41:53;-1.20;99.90
34095;DHT22;20372;47.080;15.410;2022-12-18T13:44:58;-1.20;99.90
34095;DHT22;20372;47.080;15.410;2022-12-18T13:47:27;-1.10;99.90
34095;DHT22;20372;47.080;15.410;2022-12-18T13:49:56;-1.00;99.90
34095;DHT22;20372;47.080;15.410;2022-12-18T13:52:23;-1.30;99.90
34095;DHT22;20372;47.080;15.410;2022-12-18T13:54:59;-1.50;99.90
34095;DHT22;20372;47.080;15.410;2022-12-18T13:57:29;-1.50;99.90
34095;DHT22;20372;47.080;15.410;2022-12-18T13:59:55;-1.50;99.90
34095;DHT22;20372;47.080;15.410;2022-12-18T14:02:22;-1.50;99.90
34095;DHT22;20372;47.080;15.410;2022-12-18T14:04:48;-1.40;99.90
34095;DHT22;20372;47.080;15.410;2022-12-18T14:07:15;-1.20;99.90
34095;DHT22;20372;47.080;15.410;2022-12-18T14:09:42;-1.30;99.90
34095;DHT22;20372;47.080;15.410;2022-12-18T14:12:16;-1.70;99.90
34095;DHT22;20372;47.080;15.410;2022-12-18T14:15:01;-1.30;99.90
34095;DHT22;20372;47.080;15.410;2022-12-18T14:17:26;-1.10;99.90
34095;DHT22;20372;47.080;15.410;2022-12-18T14:19:52;-1.10;99.90
34095;DHT22;20372;47.080;15.410;2022-12-18T14:22:18;-1.20;99.90
34095;DHT22;20372;47.080;15.410;2022-12-18T14:24:44;-1.30;99.90
34095;DHT22;20372;47.080;15.410;2022-12-18T14:27:21;-1.20;99.90
34095;DHT22;20372;47.080;15.410;2022-12-18T14:29:47;-1.00;99.90
34095;DHT22;20372;47.080;15.410;2022-12-18T14:32:17;-0.80;99.90
34095;DHT22;20372;47.080;15.410;2022-12-18T14:34:48;-1.10;99.90
34095;DHT22;20372;47.080;15.410;2022-12-18T14:37:15;-1.20;99.90
34095;DHT22;20372;47.080;15.410;2022-12-18T14:39:51;-1.20;99.90
34095;DHT22;20372;47.080;15.410;2022-12-18T14:42:17;-1.10;99.90
34095;DHT22;20372;47.080;15.410;2022-12-18T14:44:42;-1.00;99.90
34095;DHT22;20372;47.080;15.410;2022-12-18T14:47:12;-1.20;99.90
34095;DHT22;20372;47.080;15.410;2022-12-18T14:49:38;-1.20;99.90
34095;DHT22;20372;47.080;15.410;2022-12-18T14:52:17;-1.10;99.90
34095;DHT22;20372;47.080;15.410;2022-12-18T14:54:45;-1.30;99.90
34095;DHT22;20372;47.080;15.410;2022-12-18T14:57:20;-1.30;99.90
34095;DHT22;20372;47.080;15.410;2022-12-18T14:59:46;-1.30;99.90
34095;DHT22;20372;47.080;15.410;2022-12-18T15:02:18;-1.00;99.90
34095;DHT22;20372;47.080;15.410;2022-12-18T15:04:45;-1.20;99.90
34095;DHT22;20372;47.080;15.410;2022-12-18T15:09:36;-1.20;99.90
34095;DHT22;20372;47.080;15.410;2022-12-18T15:12:02;-1.30;99.90
34095;DHT22;20372;47.080;15.410;2022-12-18T15:14:38;-1.30;99.90
34095;DHT22;20372;47.080;15.410;2022-12-18T15:17:05;-1.30;99.90
34095;DHT22;20372;47.080;15.410;2022-12-18T15:19:38;-1.50;99.90
34095;DHT22;20372;47.080;15.410;2022-12-18T15:22:13;-1.50;99.90
34095;DHT22;20372;47.080;15.410;2022-12-18T15:24:42;-1.50;99.90
34095;DHT22;20372;47.080;15.410;2022-12-18T15:27:19;-1.40;99.90
34095;DHT22;20372;47.080;15.410;2022-12-18T15:29:58;-1.50;99.90
34095;DHT22;20372;47.080;15.410;2022-12-18T15:32:24;-1.50;99.90
34095;DHT22;20372;47.080;15.410;2022-12-18T15:34:50;-1.30;99.90
34095;DHT22;20372;47.080;15.410;2022-12-18T15:37:15;-1.30;99.90
34095;DHT22;20372;47.080;15.410;2022-12-18T15:39:41;-1.30;99.90
34095;DHT22;20372;47.080;15.410;2022-12-18T15:42:08;-1.20;99.90
34095;DHT22;20372;47.080;15.410;2022-12-18T15:44:52;-1.20;99.90
34095;DHT22;20372;47.080;15.410;2022-12-18T15:47:18;-1.10;99.90
34095;DHT22;20372;47.080;15.410;2022-12-18T15:49:43;-0.90;99.90
34095;DHT22;20372;47.080;15.410;2022-12-18T15:52:09;-1.00;99.90
34095;DHT22;20372;47.080;15.410;2022-12-18T15:54:37;-1.00;99.90
34095;DHT22;20372;47.080;15.410;2022-12-18T15:57:21;-0.90;99.90
34095;DHT22;20372;47.080;15.410;2022-12-18T15:59:51;-1.00;99.90
34095;DHT22;20372;47.080;15.410;2022-12-18T16:02:18;-0.90;99.90
34095;DHT22;20372;47.080;15.410;2022-12-18T16:04:43;-1.00;99.90
34095;DHT22;20372;47.080;15.410;2022-12-18T16:07:11;-1.00;99.90
34095;DHT22;20372;47.080;15.410;2022-12-18T16:09:37;-0.90;99.90
34095;DHT22;20372;47.080;15.410;2022-12-18T16:12:04;-1.00;99.90
34095;DHT22;20372;47.080;15.410;2022-12-18T16:14:30;-1.00;99.90
34095;DHT22;20372;47.080;15.410;2022-12-18T16:17:00;-1.00;99.90
34095;DHT22;20372;47.080;15.410;2022-12-18T16:19:26;-1.10;99.90
34095;DHT22;20372;47.080;15.410;2022-12-18T16:21:52;-1.30;99.90
34095;DHT22;20372;47.080;15.410;2022-12-18T16:24:22;-1.40;99.90
34095;DHT22;20372;47.080;15.410;2022-12-18T16:26:48;-1.50;99.90
34095;DHT22;20372;47.080;15.410;2022-12-18T16:29:14;-1.60;99.90
34095;DHT22;20372;47.080;15.410;2022-12-18T16:31:40;-1.60;99.90
34095;DHT22;20372;47.080;15.410;2022-12-18T16:34:25;-1.70;99.90
34095;DHT22;20372;47.080;15.410;2022-12-18T16:36:54;-1.60;99.90
34095;DHT22;20372;47.080;15.410;2022-12-18T16:39:20;-0.50;99.90
34095;DHT22;20372;47.080;15.410;2022-12-18T16:41:47;-1.80;99.90
34095;DHT22;20372;47.080;15.410;2022-12-18T16:44:13;-1.80;99.90
34095;DHT22;20372;47.080;15.410;2022-12-18T16:46:39;-1.60;99.90
34095;DHT22;20372;47.080;15.410;2022-12-18T16:49:08;-1.40;99.90
34095;DHT22;20372;47.080;15.410;2022-12-18T16:51:34;-1.50;99.90